createdAt,value
2022-09-17T00:00:34.413Z,6.90
2022-09-17T00:06:03.531Z,5.30
2022-09-17T00:11:29.672Z,3.80
2022-09-17T00:16:40.761Z,4.80
2022-09-17T00:21:44.179Z,7.10
2022-09-17T00:26:48.920Z,5.50
2022-09-17T00:31:52.130Z,4.50
2022-09-17T00:36:55.343Z,3.30
2022-09-17T00:47:01.854Z,5.30
2022-09-17T00:52:09.466Z,5.40
2022-09-17T00:57:12.878Z,5.40
2022-09-17T01:02:16.437Z,7.00
2022-09-17T01:07:29.021Z,7.00
2022-09-17T01:12:41.522Z,6.00
2022-09-17T01:17:59.913Z,5.30
2022-09-17T01:23:09.572Z,4.50
2022-09-17T01:28:34.081Z,3.70
2022-09-17T01:34:03.914Z,10.50
2022-09-17T01:39:24.836Z,4.40
2022-09-17T01:44:57.739Z,3.60
2022-09-17T01:50:08.934Z,5.60
2022-09-17T01:55:16.148Z,5.30
2022-09-17T02:00:20.583Z,4.00
2022-09-17T02:05:36.389Z,3.50
2022-09-17T02:10:45.685Z,4.40
2022-09-17T02:15:56.154Z,5.40
2022-09-17T02:21:12.932Z,5.90
2022-09-17T02:26:20.252Z,3.90
2022-09-17T02:31:23.796Z,2.70
2022-09-17T02:36:28.201Z,3.30
2022-09-17T02:42:05.188Z,4.50
2022-09-17T02:47:26.623Z,2.40
2022-09-17T02:52:35.668Z,2.80
2022-09-17T02:57:46.563Z,2.40
2022-09-17T03:03:17.005Z,2.70
2022-09-17T03:08:21.340Z,4.40
2022-09-17T03:13:24.452Z,3.00
2022-09-17T03:18:27.650Z,6.20
2022-09-17T03:23:30.861Z,5.40
2022-09-17T03:28:34.170Z,5.50
2022-09-17T03:33:37.685Z,3.50
2022-09-17T03:43:43.963Z,2.80
2022-09-17T03:48:47.369Z,3.20
2022-09-17T03:53:50.602Z,5.30
2022-09-17T04:04:00.651Z,3.90
2022-09-17T04:09:05.527Z,3.20
2022-09-17T04:14:08.981Z,3.80
2022-09-17T04:24:15.397Z,5.60
2022-09-17T04:34:21.812Z,7.10
2022-09-17T04:39:24.870Z,6.00
2022-09-17T04:44:28.128Z,7.40
2022-09-17T04:49:31.181Z,6.20
2022-09-17T04:54:34.306Z,6.10
2022-09-17T04:59:37.514Z,4.50
2022-09-17T05:04:40.959Z,4.60
2022-09-17T05:09:44.271Z,6.10
2022-09-17T05:19:50.307Z,4.20
2022-09-17T05:24:53.732Z,2.90
2022-09-17T05:29:58.428Z,4.90
2022-09-17T05:40:10.776Z,5.40
2022-09-17T05:45:14.235Z,5.70
2022-09-17T05:50:17.965Z,6.80
2022-09-17T05:55:23.183Z,4.00
2022-09-17T06:00:26.899Z,6.20
2022-09-17T06:05:31.234Z,5.30
2022-09-17T06:10:38.839Z,3.60
2022-09-17T06:15:42.152Z,3.10
2022-09-17T06:20:54.252Z,6.60
2022-09-17T06:25:59.939Z,5.20
2022-09-17T06:31:05.883Z,6.80
2022-09-17T06:36:14.122Z,4.10
2022-09-17T06:41:18.263Z,2.70
2022-09-17T06:46:21.707Z,3.60
2022-09-17T06:51:24.992Z,3.30
2022-09-17T06:56:28.303Z,4.00
2022-09-17T07:01:31.634Z,3.00
2022-09-17T07:06:35.283Z,4.50
2022-09-17T07:11:39.785Z,3.50
2022-09-17T07:16:42.972Z,4.30
2022-09-17T07:21:49.337Z,3.30
2022-09-17T07:26:52.905Z,4.90
2022-09-17T07:36:59.049Z,3.80
2022-09-17T07:42:04.139Z,4.80
2022-09-17T07:47:07.648Z,4.20
2022-09-17T07:52:11.033Z,3.80
2022-09-17T07:57:14.152Z,4.60
2022-09-17T08:02:20.631Z,3.20
2022-09-17T08:07:26.521Z,2.90
2022-09-17T08:12:30.022Z,2.50
2022-09-17T08:17:33.245Z,3.30
2022-09-17T08:22:36.350Z,4.00
2022-09-17T08:27:40.070Z,2.20
2022-09-17T08:32:43.481Z,3.60
2022-09-17T08:37:47.716Z,1.90
2022-09-17T08:43:02.701Z,1.80
2022-09-17T08:48:06.334Z,1.80
2022-09-17T08:53:33.691Z,3.10
2022-09-17T08:58:42.838Z,2.20
2022-09-17T09:04:11.141Z,2.50
2022-09-17T09:09:21.279Z,3.20
2022-09-17T09:15:00.252Z,2.50
2022-09-17T09:20:06.494Z,2.30
2022-09-17T09:25:23.778Z,3.20
2022-09-17T09:30:43.569Z,4.40
2022-09-17T09:35:46.978Z,3.90
2022-09-17T09:40:58.895Z,3.20
2022-09-17T09:46:15.028Z,3.40
2022-09-17T09:52:00.193Z,5.20
2022-09-17T09:57:17.839Z,2.40
2022-09-17T10:02:21.217Z,3.70
2022-09-17T10:07:24.667Z,3.60
2022-09-17T10:12:28.193Z,2.60
2022-09-17T10:17:31.390Z,4.20
2022-09-17T10:22:44.976Z,2.30
2022-09-17T10:27:49.687Z,3.40
2022-09-17T10:33:22.800Z,2.50
2022-09-17T10:38:36.774Z,2.80
2022-09-17T10:43:41.816Z,2.30
2022-09-17T10:49:12.770Z,3.00
2022-09-17T10:54:36.145Z,3.00
2022-09-17T10:59:45.443Z,3.10
2022-09-17T11:05:21.174Z,5.00
2022-09-17T11:10:43.696Z,4.00
2022-09-17T11:16:08.872Z,2.80
2022-09-17T11:22:13.713Z,2.40
2022-09-17T11:27:38.005Z,2.00
2022-09-17T11:32:56.786Z,1.90
2022-09-17T11:38:06.652Z,3.80
2022-09-17T11:43:38.015Z,3.50
2022-09-17T11:48:50.902Z,2.60
2022-09-17T11:53:59.168Z,1.90
2022-09-17T11:59:15.596Z,2.20
2022-09-17T12:04:24.427Z,2.30
2022-09-17T12:09:32.666Z,4.30
2022-09-17T12:14:54.705Z,2.60
2022-09-17T12:20:10.753Z,2.50
2022-09-17T12:25:16.277Z,2.20
2022-09-17T12:30:29.088Z,2.10
2022-09-17T12:36:03.923Z,1.90
2022-09-17T12:41:30.024Z,2.60
2022-09-17T12:47:03.132Z,2.30
2022-09-17T12:52:27.929Z,3.20
2022-09-17T12:57:53.853Z,2.00
2022-09-17T13:03:18.986Z,2.30
2022-09-17T13:08:47.229Z,2.90
2022-09-17T13:14:13.600Z,2.50
2022-09-17T13:19:42.246Z,3.10
2022-09-17T13:24:49.543Z,3.50
2022-09-17T13:29:55.517Z,2.10
2022-09-17T13:35:12.452Z,4.80
2022-09-17T13:40:28.552Z,2.90
2022-09-17T13:45:34.014Z,3.30
2022-09-17T13:50:44.555Z,4.40
2022-09-17T13:55:49.547Z,2.40
2022-09-17T14:01:06.644Z,6.00
2022-09-17T14:06:09.894Z,3.40
2022-09-17T14:11:25.101Z,4.80
2022-09-17T14:16:38.515Z,2.90
2022-09-17T14:22:08.460Z,6.20
2022-09-17T14:27:43.725Z,3.40
2022-09-17T14:32:47.030Z,5.10
2022-09-17T14:38:00.476Z,1.50
2022-09-17T14:43:04.199Z,1.30
2022-09-17T14:48:39.967Z,6.10
2022-09-17T14:53:43.804Z,3.00
2022-09-17T14:58:51.505Z,3.20
2022-09-17T15:04:12.948Z,3.70
2022-09-17T15:09:17.684Z,7.50
2022-09-17T15:14:30.010Z,3.70
2022-09-17T15:19:41.489Z,4.40
2022-09-17T15:24:56.804Z,3.80
2022-09-17T15:30:06.813Z,9.60
2022-09-17T15:35:14.793Z,6.30
2022-09-17T15:40:48.005Z,2.80
2022-09-17T15:45:57.423Z,1.20
2022-09-17T15:51:04.758Z,1.50
2022-09-17T15:56:15.442Z,2.50
2022-09-17T16:01:18.786Z,27.00
2022-09-17T16:06:22.985Z,41.70
2022-09-17T16:11:29.703Z,42.20
2022-09-17T16:16:37.727Z,251.50
2022-09-17T16:21:41.114Z,156.10
2022-09-17T16:36:52.678Z,67.50
2022-09-17T16:47:00.871Z,48.80
2022-09-17T16:52:04.707Z,110.80
2022-09-17T16:57:08.174Z,180.30
2022-09-17T17:02:11.899Z,167.30
2022-09-17T17:12:18.823Z,40.00
2022-09-17T17:17:22.882Z,41.60
2022-09-17T17:22:27.182Z,28.90
2022-09-17T17:27:31.497Z,20.80
2022-09-17T17:32:37.988Z,18.90
2022-09-17T17:37:41.725Z,14.50
2022-09-17T17:42:50.389Z,18.20
2022-09-17T17:47:54.305Z,37.30
2022-09-17T17:52:59.174Z,16.50
2022-09-17T17:58:03.140Z,9.90
2022-09-17T18:03:10.898Z,26.90
2022-09-17T18:08:14.549Z,10.50
2022-09-17T18:13:17.999Z,15.00
2022-09-17T18:18:24.860Z,17.10
2022-09-17T18:23:32.604Z,46.60
2022-09-17T18:28:37.248Z,34.40
2022-09-17T18:33:41.921Z,18.60
2022-09-17T18:38:46.751Z,8.60
2022-09-17T18:43:50.472Z,21.20
2022-09-17T18:48:55.128Z,19.40
2022-09-17T18:53:59.521Z,7.60
2022-09-17T18:59:07.960Z,15.70
2022-09-17T19:04:11.813Z,25.20
2022-09-17T19:09:16.484Z,40.70
2022-09-17T19:14:19.732Z,6.70
2022-09-17T19:19:23.100Z,7.10
2022-09-17T19:24:27.701Z,6.40
2022-09-17T19:29:33.534Z,7.00
2022-09-17T19:34:37.258Z,7.00
2022-09-17T19:39:47.365Z,5.50
2022-09-17T19:44:53.117Z,6.60
2022-09-17T19:49:58.394Z,12.30
2022-09-17T19:55:02.399Z,7.80
2022-09-17T20:00:18.331Z,9.30
2022-09-17T20:05:22.906Z,9.00
2022-09-17T20:10:38.483Z,14.00
2022-09-17T20:15:43.314Z,19.40
2022-09-17T20:20:50.401Z,14.20
2022-09-17T20:25:53.949Z,12.40
2022-09-17T20:36:16.098Z,9.90
2022-09-17T20:41:20.331Z,15.10
2022-09-17T20:46:28.929Z,11.50
2022-09-17T20:51:34.196Z,10.60
2022-09-17T20:56:37.857Z,17.00
2022-09-17T21:01:47.737Z,20.20
2022-09-17T21:06:54.777Z,21.90
2022-09-17T21:11:58.428Z,19.80
2022-09-17T21:17:02.306Z,14.50
2022-09-17T21:22:05.659Z,13.20
2022-09-17T21:32:12.675Z,8.60
2022-09-17T21:37:15.791Z,9.50
2022-09-17T21:42:19.007Z,10.90
2022-09-17T21:47:22.269Z,10.50
2022-09-17T21:52:25.420Z,12.60
2022-09-17T21:57:28.726Z,9.20
2022-09-17T22:07:58.492Z,9.40
2022-09-17T22:18:08.560Z,11.30
2022-09-17T22:23:15.385Z,10.30
2022-09-17T22:28:21.282Z,15.40
2022-09-17T22:33:27.028Z,14.70
2022-09-17T22:38:30.345Z,13.40
2022-09-17T22:43:34.056Z,10.50
2022-09-17T22:48:37.263Z,15.00
2022-09-17T22:58:46.142Z,11.50
2022-09-17T23:03:51.907Z,11.90
2022-09-17T23:08:55.631Z,10.90
2022-09-17T23:14:04.438Z,11.40
2022-09-17T23:19:08.084Z,9.90
2022-09-17T23:24:18.415Z,15.20
2022-09-17T23:29:21.567Z,12.10
2022-09-17T23:34:24.672Z,11.90
2022-09-17T23:39:27.777Z,11.10
2022-09-17T23:44:30.884Z,13.50
2022-09-17T23:49:34.714Z,14.00
2022-09-17T23:54:38.118Z,10.80
